Time,TemperatureF,DewpointF,PressureIn,WindDirection,WindDirectionDegrees,WindSpeedMPH,WindSpeedGustMPH,Humidity,HourlyPrecipIn,Conditions,Clouds,dailyrainin,SoftwareType,DateUTC
2013-07-03 00:00:00,54.6,52.0,29.97,ENE,65,0.0,0.0,91,0.00,,---,0.00,VWS V14.00,2013-07-03 05:00:00,
2013-07-03 00:04:00,54.5,51.9,29.97,ENE,65,0.0,0.0,91,0.00,,---,0.00,VWS V14.00,2013-07-03 05:04:00,
2013-07-03 00:05:00,54.5,51.9,29.97,ENE,65,0.0,0.0,91,0.00,,---,0.00,VWS V14.00,2013-07-03 05:05:00,
2013-07-03 00:07:00,54.3,51.4,29.97,ENE,65,0.0,0.0,90,0.00,,---,0.00,VWS V14.00,2013-07-03 05:07:00,
2013-07-03 00:10:00,54.1,51.5,29.97,ENE,65,0.0,0.0,91,0.00,,---,0.00,VWS V14.00,2013-07-03 05:10:00,
2013-07-03 00:12:00,54.1,51.5,29.97,ENE,65,0.0,0.0,91,0.00,,---,0.00,VWS V14.00,2013-07-03 05:12:00,
2013-07-03 00:15:00,54.0,51.4,29.97,ENE,65,0.0,0.0,91,0.00,,---,0.00,VWS V14.00,2013-07-03 05:15:00,
2013-07-03 00:17:00,54.0,51.4,29.97,ENE,65,0.0,0.0,91,0.00,,---,0.00,VWS V14.00,2013-07-03 05:17:00,
2013-07-03 00:19:00,54.0,51.7,29.97,ENE,65,0.0,0.0,92,0.00,,---,0.00,VWS V14.00,2013-07-03 05:19:00,
2013-07-03 00:20:00,54.0,51.7,29.97,ENE,65,0.0,0.0,92,0.00,,---,0.00,VWS V14.00,2013-07-03 05:20:00,
2013-07-03 00:24:00,53.9,51.6,29.97,ENE,65,0.0,0.0,92,0.00,,---,0.00,VWS V14.00,2013-07-03 05:24:00,
2013-07-03 00:25:00,53.9,51.6,29.97,ENE,65,0.0,0.0,92,0.00,,---,0.00,VWS V14.00,2013-07-03 05:25:00,
2013-07-03 00:29:00,53.8,51.5,29.97,ENE,65,0.0,0.0,92,0.00,,---,0.00,VWS V14.00,2013-07-03 05:29:00,
2013-07-03 00:30:00,53.8,51.5,29.97,ENE,65,0.0,0.0,92,0.00,,---,0.00,VWS V14.00,2013-07-03 05:30:00,
2013-07-03 00:34:00,53.8,51.5,29.96,ENE,65,0.0,0.0,92,0.00,,---,0.00,VWS V14.00,2013-07-03 05:34:00,
2013-07-03 00:35:00,53.8,51.5,29.96,ENE,65,0.0,0.0,92,0.00,,---,0.00,VWS V14.00,2013-07-03 05:35:00,
2013-07-03 00:39:00,53.5,51.2,29.96,ENE,65,0.0,0.0,92,0.00,,---,0.00,VWS V14.00,2013-07-03 05:39:00,
2013-07-03 00:40:00,53.5,51.2,29.96,ENE,65,0.0,0.0,92,0.00,,---,0.00,VWS V14.00,2013-07-03 05:40:00,
2013-07-03 00:44:00,53.4,51.1,29.96,ENE,65,0.0,0.0,92,0.00,,---,0.00,VWS V14.00,2013-07-03 05:44:00,
2013-07-03 00:45:00,53.4,51.1,29.96,ENE,65,0.0,0.0,92,0.00,,---,0.00,VWS V14.00,2013-07-03 05:45:00,
2013-07-03 00:49:00,53.4,51.1,29.96,ENE,65,0.0,1.0,92,0.00,,---,0.00,VWS V14.00,2013-07-03 05:49:00,
2013-07-03 00:50:00,53.4,51.1,29.96,ENE,65,0.0,1.0,92,0.00,,---,0.00,VWS V14.00,2013-07-03 05:50:00,
2013-07-03 00:54:00,53.3,51.0,29.96,ENE,65,0.0,0.0,92,0.00,,---,0.00,VWS V14.00,2013-07-03 05:54:00,
2013-07-03 00:55:00,53.3,51.0,29.96,ENE,65,0.0,0.0,92,0.00,,---,0.00,VWS V14.00,2013-07-03 05:55:00,
2013-07-03 00:57:00,53.2,50.9,29.96,ENE,65,0.0,0.0,92,0.00,,---,0.00,VWS V14.00,2013-07-03 05:57:00,
2013-07-03 00:58:00,53.2,50.9,29.96,ENE,65,0.0,0.0,92,0.00,,---,0.00,VWS V14.00,2013-07-03 05:58:00,
2013-07-03 01:00:00,53.2,50.9,29.96,ENE,65,0.0,0.0,92,0.00,,---,0.00,VWS V14.00,2013-07-03 06:00:00,
2013-07-03 01:02:00,53.1,50.8,29.96,ENE,65,0.0,0.0,92,0.00,,---,0.00,VWS V14.00,2013-07-03 06:02:00,
2013-07-03 01:05:00,53.0,50.7,29.96,ENE,65,0.0,0.0,92,0.00,,---,0.00,VWS V14.00,2013-07-03 06:05:00,
2013-07-03 01:07:00,53.0,50.7,29.96,ENE,65,0.0,0.0,92,0.00,,---,0.00,VWS V14.00,2013-07-03 06:07:00,
2013-07-03 01:10:00,53.0,50.7,29.96,ENE,65,0.0,0.0,92,0.00,,---,0.00,VWS V14.00,2013-07-03 06:10:00,
2013-07-03 01:12:00,52.9,50.6,29.97,ENE,65,0.0,0.0,92,0.00,,---,0.00,VWS V14.00,2013-07-03 06:12:00,
2013-07-03 01:13:00,52.9,50.6,29.97,ENE,65,0.0,0.0,92,0.00,,---,0.00,VWS V14.00,2013-07-03 06:13:00,
2013-07-03 01:15:00,52.9,50.6,29.96,ENE,65,0.0,0.0,92,0.00,,---,0.00,VWS V14.00,2013-07-03 06:15:00,
2013-07-03 01:17:00,53.0,51.0,29.96,ENE,65,0.0,0.0,93,0.00,,---,0.00,VWS V14.00,2013-07-03 06:17:00,
2013-07-03 01:20:00,53.0,51.0,29.96,ENE,65,0.0,0.0,93,0.00,,---,0.00,VWS V14.00,2013-07-03 06:20:00,
2013-07-03 01:22:00,53.0,51.0,29.96,ENE,65,0.0,0.0,93,0.00,,---,0.00,VWS V14.00,2013-07-03 06:22:00,
2013-07-03 01:24:00,53.0,51.0,29.96,ENE,65,0.0,0.0,93,0.00,,---,0.00,VWS V14.00,2013-07-03 06:24:00,
2013-07-03 01:25:00,53.0,51.0,29.96,ENE,65,0.0,0.0,93,0.00,,---,0.00,VWS V14.00,2013-07-03 06:25:00,
2013-07-03 01:26:00,52.9,50.9,29.96,ENE,65,0.0,0.0,93,0.00,,---,0.00,VWS V14.00,2013-07-03 06:26:00,
2013-07-03 01:30:00,52.8,50.8,29.96,ENE,65,0.0,0.0,93,0.00,,---,0.00,VWS V14.00,2013-07-03 06:30:00,
2013-07-03 01:31:00,52.8,50.8,29.96,ENE,65,0.0,0.0,93,0.00,,---,0.00,VWS V14.00,2013-07-03 06:31:00,
2013-07-03 01:32:00,52.8,50.8,29.96,ENE,65,0.0,0.0,93,0.00,,---,0.00,VWS V14.00,2013-07-03 06:32:00,
2013-07-03 01:35:00,52.7,50.7,29.96,ENE,65,0.0,0.0,93,0.00,,---,0.00,VWS V14.00,2013-07-03 06:35:00,
2013-07-03 01:37:00,52.7,50.7,29.96,ENE,65,0.0,0.0,93,0.00,,---,0.00,VWS V14.00,2013-07-03 06:37:00,
2013-07-03 01:40:00,52.7,50.7,29.96,ENE,65,0.0,1.0,93,0.00,,---,0.00,VWS V14.00,2013-07-03 06:40:00,
2013-07-03 01:42:00,52.7,50.7,29.96,ENE,65,0.0,0.0,93,0.00,,---,0.00,VWS V14.00,2013-07-03 06:42:00,
2013-07-03 01:43:00,52.7,50.7,29.96,ENE,65,0.0,0.0,93,0.00,,---,0.00,VWS V14.00,2013-07-03 06:43:00,
2013-07-03 01:45:00,52.7,50.7,29.96,ENE,65,0.0,0.0,93,0.00,,---,0.00,VWS V14.00,2013-07-03 06:45:00,
2013-07-03 01:48:00,52.6,50.6,29.96,ENE,65,0.0,0.0,93,0.00,,---,0.00,VWS V14.00,2013-07-03 06:48:00,
2013-07-03 01:50:00,52.6,50.6,29.96,ENE,65,0.0,0.0,93,0.00,,---,0.00,VWS V14.00,2013-07-03 06:50:00,
2013-07-03 01:53:00,52.5,50.5,29.96,ENE,65,0.0,0.0,93,0.00,,---,0.00,VWS V14.00,2013-07-03 06:53:00,
2013-07-03 01:55:00,52.5,50.5,29.96,ENE,65,0.0,0.0,93,0.00,,---,0.00,VWS V14.00,2013-07-03 06:55:00,
2013-07-03 02:00:00,52.6,50.9,29.96,ENE,65,0.0,0.0,94,0.00,,---,0.00,VWS V14.00,2013-07-03 07:00:00,
2013-07-03 02:01:00,52.6,50.9,29.96,ENE,65,0.0,0.0,94,0.00,,---,0.00,VWS V14.00,2013-07-03 07:01:00,
2013-07-03 02:05:00,52.6,50.9,29.96,ENE,65,0.0,0.0,94,0.00,,---,0.00,VWS V14.00,2013-07-03 07:05:00,
2013-07-03 02:06:00,52.7,51.0,29.96,ENE,65,0.0,0.0,94,0.00,,---,0.00,VWS V14.00,2013-07-03 07:06:00,
2013-07-03 02:10:00,52.7,51.0,29.96,ENE,65,0.0,0.0,94,0.00,,---,0.00,VWS V14.00,2013-07-03 07:10:00,
2013-07-03 02:11:00,52.7,51.0,29.95,ENE,65,0.0,0.0,94,0.00,,---,0.00,VWS V14.00,2013-07-03 07:11:00,
2013-07-03 02:15:00,52.7,51.0,29.95,ENE,65,0.0,0.0,94,0.00,,---,0.00,VWS V14.00,2013-07-03 07:15:00,
2013-07-03 02:16:00,52.8,51.1,29.95,ENE,65,0.0,0.0,94,0.00,,---,0.00,VWS V14.00,2013-07-03 07:16:00,
2013-07-03 02:20:00,52.8,51.1,29.95,ENE,65,0.0,0.0,94,0.00,,---,0.00,VWS V14.00,2013-07-03 07:20:00,
2013-07-03 02:21:00,52.8,51.1,29.95,ENE,65,0.0,0.0,94,0.00,,---,0.00,VWS V14.00,2013-07-03 07:21:00,
2013-07-03 02:25:00,52.8,51.1,29.95,ENE,65,0.0,0.0,94,0.00,,---,0.00,VWS V14.00,2013-07-03 07:25:00,
2013-07-03 02:26:00,52.9,51.2,29.95,ENE,65,0.0,0.0,94,0.00,,---,0.00,VWS V14.00,2013-07-03 07:26:00,
2013-07-03 02:30:00,53.0,51.3,29.95,ENE,65,0.0,1.0,94,0.00,,---,0.00,VWS V14.00,2013-07-03 07:30:00,
2013-07-03 02:31:00,53.0,51.6,29.95,ENE,65,0.0,0.0,95,0.00,,---,0.00,VWS V14.00,2013-07-03 07:31:00,
2013-07-03 02:35:00,53.1,51.7,29.94,ENE,64,0.0,1.0,95,0.00,,---,0.00,VWS V14.00,2013-07-03 07:35:00,
2013-07-03 02:37:00,53.2,51.8,29.94,ENE,64,0.0,1.0,95,0.00,,---,0.00,VWS V14.00,2013-07-03 07:37:00,
2013-07-03 02:38:00,53.2,51.8,29.94,ENE,64,0.0,1.0,95,0.00,,---,0.00,VWS V14.00,2013-07-03 07:38:00,
2013-07-03 02:40:00,53.3,51.9,29.94,ENE,64,0.0,1.0,95,0.00,,---,0.00,VWS V14.00,2013-07-03 07:40:00,
2013-07-03 02:43:00,53.4,52.0,29.94,ENE,64,0.0,0.0,95,0.00,,---,0.00,VWS V14.00,2013-07-03 07:43:00,
2013-07-03 02:45:00,53.4,51.7,29.94,ENE,64,0.0,0.0,94,0.00,,---,0.00,VWS V14.00,2013-07-03 07:45:00,
2013-07-03 02:48:00,53.4,51.7,29.94,ENE,64,0.0,0.0,94,0.00,,---,0.00,VWS V14.00,2013-07-03 07:48:00,
2013-07-03 02:50:00,53.4,51.7,29.94,ENE,64,0.0,0.0,94,0.00,,---,0.00,VWS V14.00,2013-07-03 07:50:00,
2013-07-03 02:55:00,53.4,51.7,29.94,ENE,64,0.0,0.0,94,0.00,,---,0.00,VWS V14.00,2013-07-03 07:55:00,
2013-07-03 03:00:00,53.3,51.6,29.94,ENE,64,0.0,0.0,94,0.00,,---,0.00,VWS V14.00,2013-07-03 08:00:00,
2013-07-03 03:01:00,53.3,51.6,29.94,ENE,64,0.0,0.0,94,0.00,,---,0.00,VWS V14.00,2013-07-03 08:01:00,
2013-07-03 03:05:00,53.3,51.6,29.94,ENE,64,0.0,0.0,94,0.00,,---,0.00,VWS V14.00,2013-07-03 08:05:00,
2013-07-03 03:06:00,53.2,51.5,29.94,ENE,64,0.0,0.0,94,0.00,,---,0.00,VWS V14.00,2013-07-03 08:06:00,
2013-07-03 03:09:00,53.1,51.4,29.94,ENE,64,0.0,0.0,94,0.00,,---,0.00,VWS V14.00,2013-07-03 08:09:00,
2013-07-03 03:10:00,53.1,51.4,29.94,ENE,64,0.0,0.0,94,0.00,,---,0.00,VWS V14.00,2013-07-03 08:10:00,
2013-07-03 03:14:00,53.0,51.3,29.94,ENE,64,0.0,0.0,94,0.00,,---,0.00,VWS V14.00,2013-07-03 08:14:00,
2013-07-03 03:15:00,53.0,51.3,29.94,ENE,64,0.0,0.0,94,0.00,,---,0.00,VWS V14.00,2013-07-03 08:15:00,
2013-07-03 03:16:00,53.0,51.3,29.94,ENE,64,0.0,0.0,94,0.00,,---,0.00,VWS V14.00,2013-07-03 08:16:00,
2013-07-03 03:18:00,52.8,51.1,29.94,ENE,64,0.0,0.0,94,0.00,,---,0.00,VWS V14.00,2013-07-03 08:18:00,
2013-07-03 03:20:00,52.8,51.1,29.94,ENE,64,0.0,0.0,94,0.00,,---,0.00,VWS V14.00,2013-07-03 08:20:00,
2013-07-03 03:23:00,52.8,51.1,29.94,ENE,64,0.0,0.0,94,0.00,,---,0.00,VWS V14.00,2013-07-03 08:23:00,
2013-07-03 03:25:00,52.8,51.1,29.94,ENE,64,0.0,0.0,94,0.00,,---,0.00,VWS V14.00,2013-07-03 08:25:00,
2013-07-03 03:28:00,52.6,50.9,29.94,ENE,64,0.0,0.0,94,0.00,,---,0.00,VWS V14.00,2013-07-03 08:28:00,
2013-07-03 03:30:00,52.6,50.9,29.94,ENE,64,0.0,0.0,94,0.00,,---,0.00,VWS V14.00,2013-07-03 08:30:00,
2013-07-03 03:33:00,52.4,50.7,29.94,ENE,64,0.0,0.0,94,0.00,,---,0.00,VWS V14.00,2013-07-03 08:33:00,
2013-07-03 03:35:00,52.4,50.7,29.94,ENE,64,0.0,0.0,94,0.00,,---,0.00,VWS V14.00,2013-07-03 08:35:00,
2013-07-03 03:38:00,52.3,50.6,29.94,ENE,64,0.0,0.0,94,0.00,,---,0.00,VWS V14.00,2013-07-03 08:38:00,
2013-07-03 03:39:00,52.3,50.6,29.94,ENE,64,0.0,0.0,94,0.00,,---,0.00,VWS V14.00,2013-07-03 08:39:00,
2013-07-03 03:40:00,52.3,50.6,29.94,ENE,64,0.0,0.0,94,0.00,,---,0.00,VWS V14.00,2013-07-03 08:40:00,
2013-07-03 03:44:00,52.2,50.5,29.94,ENE,64,0.0,0.0,94,0.00,,---,0.00,VWS V14.00,2013-07-03 08:44:00,
2013-07-03 03:45:00,52.2,50.5,29.94,ENE,64,0.0,0.0,94,0.00,,---,0.00,VWS V14.00,2013-07-03 08:45:00,
2013-07-03 03:50:00,52.2,50.8,29.94,ENE,64,0.0,0.0,95,0.00,,---,0.00,VWS V14.00,2013-07-03 08:50:00,
2013-07-03 03:54:00,52.2,50.8,29.94,ENE,64,0.0,0.0,95,0.00,,---,0.00,VWS V14.00,2013-07-03 08:54:00,
2013-07-03 03:55:00,52.1,50.7,29.94,ENE,64,0.0,0.0,95,0.00,,---,0.00,VWS V14.00,2013-07-03 08:55:00,
2013-07-03 04:00:00,52.1,50.7,29.94,ENE,64,0.0,0.0,95,0.00,,---,0.00,VWS V14.00,2013-07-03 09:00:00,
2013-07-03 04:05:00,52.1,50.7,29.94,ENE,64,0.0,0.0,95,0.00,,---,0.00,VWS V14.00,2013-07-03 09:05:00,
2013-07-03 04:10:00,52.1,50.7,29.94,ENE,64,0.0,0.0,95,0.00,,---,0.00,VWS V14.00,2013-07-03 09:10:00,
2013-07-03 04:15:00,52.0,50.6,29.94,ENE,64,0.0,0.0,95,0.00,,---,0.00,VWS V14.00,2013-07-03 09:15:00,
2013-07-03 04:20:00,51.9,50.5,29.94,ENE,64,0.0,0.0,95,0.00,,---,0.00,VWS V14.00,2013-07-03 09:20:00,
2013-07-03 04:25:00,51.8,50.4,29.94,ENE,64,0.0,0.0,95,0.00,,---,0.00,VWS V14.00,2013-07-03 09:25:00,
2013-07-03 04:30:00,51.7,50.3,29.94,ENE,64,0.0,0.0,95,0.00,,---,0.00,VWS V14.00,2013-07-03 09:30:00,
2013-07-03 04:35:00,51.7,50.3,29.94,ENE,64,0.0,0.0,95,0.00,,---,0.00,VWS V14.00,2013-07-03 09:35:00,
2013-07-03 04:40:00,51.7,50.3,29.94,ENE,64,0.0,0.0,95,0.00,,---,0.00,VWS V14.00,2013-07-03 09:40:00,
2013-07-03 04:41:00,51.7,50.3,29.94,ENE,64,0.0,0.0,95,0.00,,---,0.00,VWS V14.00,2013-07-03 09:41:00,
2013-07-03 04:45:00,51.7,50.3,29.94,ENE,64,0.0,0.0,95,0.00,,---,0.00,VWS V14.00,2013-07-03 09:45:00,
2013-07-03 04:46:00,51.8,50.4,29.94,ENE,64,0.0,0.0,95,0.00,,---,0.00,VWS V14.00,2013-07-03 09:46:00,
2013-07-03 04:49:00,51.8,50.4,29.94,ENE,64,0.0,0.0,95,0.00,,---,0.00,VWS V14.00,2013-07-03 09:49:00,
2013-07-03 04:50:00,51.8,50.4,29.94,ENE,64,0.0,0.0,95,0.00,,---,0.00,VWS V14.00,2013-07-03 09:50:00,
2013-07-03 04:51:00,51.9,50.5,29.94,ENE,64,0.0,0.0,95,0.00,,---,0.00,VWS V14.00,2013-07-03 09:51:00,
2013-07-03 04:55:00,52.0,50.9,29.95,ENE,64,0.0,0.0,96,0.00,,---,0.00,VWS V14.00,2013-07-03 09:55:00,
2013-07-03 04:56:00,52.1,51.0,29.95,ENE,64,0.0,0.0,96,0.00,,---,0.00,VWS V14.00,2013-07-03 09:56:00,
2013-07-03 05:00:00,52.2,51.1,29.95,ENE,64,0.0,0.0,96,0.00,,---,0.00,VWS V14.00,2013-07-03 10:00:00,
2013-07-03 05:01:00,52.3,51.2,29.94,ENE,64,0.0,0.0,96,0.00,,---,0.00,VWS V14.00,2013-07-03 10:01:00,
2013-07-03 05:04:00,52.3,51.2,29.95,ENE,64,0.0,0.0,96,0.00,,---,0.00,VWS V14.00,2013-07-03 10:04:00,
2013-07-03 05:05:00,52.4,51.3,29.95,ENE,64,0.0,0.0,96,0.00,,---,0.00,VWS V14.00,2013-07-03 10:05:00,
2013-07-03 05:10:00,52.6,51.5,29.95,ENE,64,0.0,0.0,96,0.00,,---,0.00,VWS V14.00,2013-07-03 10:10:00,
2013-07-03 05:15:00,52.7,51.6,29.95,ENE,68,0.0,0.0,96,0.00,,---,0.00,VWS V14.00,2013-07-03 10:15:00,
2013-07-03 05:20:00,52.9,51.8,29.95,SSW,198,0.0,0.0,96,0.00,,---,0.00,VWS V14.00,2013-07-03 10:20:00,
2013-07-03 05:25:00,53.0,51.9,29.95,SSW,198,0.0,0.0,96,0.00,,---,0.00,VWS V14.00,2013-07-03 10:25:00,
2013-07-03 05:26:00,53.0,51.9,29.95,SSW,198,0.0,0.0,96,0.00,,---,0.00,VWS V14.00,2013-07-03 10:26:00,
2013-07-03 05:30:00,53.1,52.0,29.95,SSW,198,0.0,0.0,96,0.00,,---,0.00,VWS V14.00,2013-07-03 10:30:00,
2013-07-03 05:31:00,53.1,52.0,29.95,SSW,198,0.0,0.0,96,0.00,,---,0.00,VWS V14.00,2013-07-03 10:31:00,
2013-07-03 05:35:00,53.2,52.1,29.95,ESE,123,0.0,0.0,96,0.00,,---,0.00,VWS V14.00,2013-07-03 10:35:00,
2013-07-03 05:36:00,53.2,52.1,29.95,ESE,123,0.0,0.0,96,0.00,,---,0.00,VWS V14.00,2013-07-03 10:36:00,
2013-07-03 05:40:00,53.3,52.2,29.95,ESE,123,0.0,0.0,96,0.00,,---,0.00,VWS V14.00,2013-07-03 10:40:00,
2013-07-03 05:41:00,53.4,52.3,29.96,ESE,123,0.0,0.0,96,0.00,,---,0.00,VWS V14.00,2013-07-03 10:41:00,
2013-07-03 05:45:00,53.5,52.4,29.96,NNW,329,0.0,1.0,96,0.00,,---,0.00,VWS V14.00,2013-07-03 10:45:00,
2013-07-03 05:46:00,53.6,52.5,29.96,NNW,329,0.0,0.0,96,0.00,,---,0.00,VWS V14.00,2013-07-03 10:46:00,
2013-07-03 05:49:00,53.7,52.6,29.96,NNW,329,0.0,0.0,96,0.00,,---,0.00,VWS V14.00,2013-07-03 10:49:00,
2013-07-03 05:50:00,53.7,52.6,29.96,NNW,329,0.0,0.0,96,0.00,,---,0.00,VWS V14.00,2013-07-03 10:50:00,
2013-07-03 05:54:00,53.9,52.8,29.96,NNW,329,0.0,0.0,96,0.00,,---,0.00,VWS V14.00,2013-07-03 10:54:00,
2013-07-03 05:55:00,54.0,52.9,29.95,NNW,329,0.0,0.0,96,0.00,,---,0.00,VWS V14.00,2013-07-03 10:55:00,
2013-07-03 05:57:00,54.0,52.9,29.95,NNW,329,0.0,0.0,96,0.00,,---,0.00,VWS V14.00,2013-07-03 10:57:00,
2013-07-03 06:00:00,54.0,52.9,29.95,NNW,329,0.0,0.0,96,0.00,,---,0.00,VWS V14.00,2013-07-03 11:00:00,
2013-07-03 06:02:00,54.1,53.0,29.96,NNW,329,0.0,0.0,96,0.00,,---,0.00,VWS V14.00,2013-07-03 11:02:00,
2013-07-03 06:05:00,54.2,53.1,29.96,NNW,329,0.0,0.0,96,0.00,,---,0.00,VWS V14.00,2013-07-03 11:05:00,
2013-07-03 06:07:00,54.2,53.1,29.96,NNW,329,0.0,0.0,96,0.00,,---,0.00,VWS V14.00,2013-07-03 11:07:00,
2013-07-03 06:08:00,54.2,53.1,29.96,NNW,329,0.0,0.0,96,0.00,,---,0.00,VWS V14.00,2013-07-03 11:08:00,
2013-07-03 06:09:00,54.2,53.1,29.96,NNW,329,0.0,0.0,96,0.00,,---,0.00,VWS V14.00,2013-07-03 11:09:00,
2013-07-03 06:10:00,54.2,53.1,29.96,NNW,329,0.0,0.0,96,0.00,,---,0.00,VWS V14.00,2013-07-03 11:10:00,
2013-07-03 06:14:00,54.4,53.3,29.96,NNW,329,0.0,0.0,96,0.00,,---,0.00,VWS V14.00,2013-07-03 11:14:00,
2013-07-03 06:15:00,54.4,53.3,29.96,NNW,329,0.0,0.0,96,0.00,,---,0.00,VWS V14.00,2013-07-03 11:15:00,
2013-07-03 06:19:00,54.5,53.4,29.96,NNW,329,0.0,0.0,96,0.00,,---,0.00,VWS V14.00,2013-07-03 11:19:00,
2013-07-03 06:20:00,54.5,53.4,29.96,NNW,329,0.0,0.0,96,0.00,,---,0.00,VWS V14.00,2013-07-03 11:20:00,
2013-07-03 06:24:00,54.6,53.5,29.96,NNW,329,0.0,0.0,96,0.00,,---,0.00,VWS V14.00,2013-07-03 11:24:00,
2013-07-03 06:25:00,54.7,53.6,29.96,NNW,329,0.0,0.0,96,0.00,,---,0.00,VWS V14.00,2013-07-03 11:25:00,
2013-07-03 06:30:00,54.8,53.7,29.96,WSW,252,0.0,0.0,96,0.00,,---,0.00,VWS V14.00,2013-07-03 11:30:00,
2013-07-03 06:35:00,54.9,53.8,29.96,WSW,252,0.0,0.0,96,0.00,,---,0.00,VWS V14.00,2013-07-03 11:35:00,
2013-07-03 06:40:00,55.3,54.2,29.96,WSW,252,0.0,0.0,96,0.00,,---,0.00,VWS V14.00,2013-07-03 11:40:00,
2013-07-03 06:45:00,55.6,54.5,29.96,NW,311,0.0,1.0,96,0.00,,---,0.00,VWS V14.00,2013-07-03 11:45:00,
2013-07-03 06:50:00,55.7,54.3,29.96,WNW,302,2.0,2.0,95,0.00,,---,0.00,VWS V14.00,2013-07-03 11:50:00,
2013-07-03 06:55:00,55.7,54.3,29.96,NW,309,0.0,0.0,95,0.00,,---,0.00,VWS V14.00,2013-07-03 11:55:00,
2013-07-03 06:59:00,55.8,54.4,29.96,NW,325,0.0,3.0,95,0.00,,---,0.00,VWS V14.00,2013-07-03 11:59:00,
2013-07-03 07:00:00,55.8,54.4,29.96,NW,326,0.0,3.0,95,0.00,,---,0.00,VWS V14.00,2013-07-03 12:00:00,
2013-07-03 07:02:00,55.9,54.5,29.96,NE,35,0.0,0.0,95,0.00,,---,0.00,VWS V14.00,2013-07-03 12:02:00,
2013-07-03 07:05:00,56.0,54.3,29.96,NE,35,0.0,1.0,94,0.00,,---,0.00,VWS V14.00,2013-07-03 12:05:00,
2013-07-03 07:07:00,56.1,54.4,29.96,NE,35,0.0,1.0,94,0.00,,---,0.00,VWS V14.00,2013-07-03 12:07:00,
2013-07-03 07:10:00,56.3,54.6,29.96,NE,34,0.0,1.0,94,0.00,,---,0.00,VWS V14.00,2013-07-03 12:10:00,
2013-07-03 07:12:00,56.5,54.8,29.96,NE,34,0.0,0.0,94,0.00,,---,0.00,VWS V14.00,2013-07-03 12:12:00,
2013-07-03 07:15:00,56.6,54.9,29.96,NE,34,0.0,1.0,94,0.00,,---,0.00,VWS V14.00,2013-07-03 12:15:00,
2013-07-03 07:16:00,56.7,54.7,29.96,NE,35,0.0,0.0,93,0.00,,---,0.00,VWS V14.00,2013-07-03 12:16:00,
2013-07-03 07:20:00,56.8,54.5,29.96,NE,35,0.0,0.0,92,0.00,,---,0.00,VWS V14.00,2013-07-03 12:20:00,
2013-07-03 07:25:00,56.9,54.6,29.96,NE,34,0.0,1.0,92,0.00,,---,0.00,VWS V14.00,2013-07-03 12:25:00,
2013-07-03 07:26:00,57.0,54.7,29.96,NE,35,0.0,1.0,92,0.00,,---,0.00,VWS V14.00,2013-07-03 12:26:00,
2013-07-03 07:30:00,57.4,54.8,29.96,NE,34,0.0,1.0,91,0.00,,---,0.00,VWS V14.00,2013-07-03 12:30:00,
2013-07-03 07:31:00,57.5,54.9,29.96,NE,34,0.0,0.0,91,0.00,,---,0.00,VWS V14.00,2013-07-03 12:31:00,
2013-07-03 07:35:00,57.7,55.1,29.96,NE,35,0.0,0.0,91,0.00,,---,0.00,VWS V14.00,2013-07-03 12:35:00,
2013-07-03 07:36:00,57.9,55.3,29.96,NE,34,0.0,0.0,91,0.00,,---,0.00,VWS V14.00,2013-07-03 12:36:00,
2013-07-03 07:40:00,58.1,55.5,29.96,NE,35,0.0,0.0,91,0.00,,---,0.00,VWS V14.00,2013-07-03 12:40:00,
2013-07-03 07:41:00,58.3,55.4,29.96,NE,35,0.0,0.0,90,0.00,,---,0.00,VWS V14.00,2013-07-03 12:41:00,
2013-07-03 07:45:00,58.6,55.7,29.96,NE,35,0.0,0.0,90,0.00,,---,0.00,VWS V14.00,2013-07-03 12:45:00,
2013-07-03 07:46:00,58.8,55.6,29.96,NE,35,0.0,1.0,89,0.00,,---,0.00,VWS V14.00,2013-07-03 12:46:00,
2013-07-03 07:50:00,59.2,56.3,29.96,NE,34,0.0,1.0,90,0.00,,---,0.00,VWS V14.00,2013-07-03 12:50:00,
2013-07-03 07:51:00,59.4,56.2,29.96,NE,35,0.0,1.0,89,0.00,,---,0.00,VWS V14.00,2013-07-03 12:51:00,
2013-07-03 07:55:00,59.6,56.4,29.96,NE,35,0.0,1.0,89,0.00,,---,0.00,VWS V14.00,2013-07-03 12:55:00,
2013-07-03 07:57:00,59.6,56.0,29.96,NE,35,0.0,0.0,88,0.00,,---,0.00,VWS V14.00,2013-07-03 12:57:00,
2013-07-03 08:00:00,59.6,56.0,29.96,NE,34,0.0,1.0,88,0.00,,---,0.00,VWS V14.00,2013-07-03 13:00:00,
2013-07-03 08:02:00,59.7,56.5,29.96,NE,35,0.0,0.0,89,0.00,,---,0.00,VWS V14.00,2013-07-03 13:02:00,
2013-07-03 08:05:00,59.8,56.2,29.96,NE,34,0.0,0.0,88,0.00,,---,0.00,VWS V14.00,2013-07-03 13:05:00,
2013-07-03 08:07:00,59.9,56.3,29.97,NE,35,0.0,0.0,88,0.00,,---,0.00,VWS V14.00,2013-07-03 13:07:00,
2013-07-03 08:10:00,60.1,56.5,29.97,NE,34,0.0,0.0,88,0.00,,---,0.00,VWS V14.00,2013-07-03 13:10:00,
2013-07-03 08:12:00,60.2,56.3,29.97,NE,34,0.0,0.0,87,0.00,,---,0.00,VWS V14.00,2013-07-03 13:12:00,
2013-07-03 08:15:00,60.2,56.3,29.97,NE,35,0.0,0.0,87,0.00,,---,0.00,VWS V14.00,2013-07-03 13:15:00,
2013-07-03 08:17:00,60.4,56.8,29.97,NE,51,0.0,1.0,88,0.00,,---,0.00,VWS V14.00,2013-07-03 13:17:00,
2013-07-03 08:20:00,60.5,56.6,29.97,NE,51,0.0,1.0,87,0.00,,---,0.00,VWS V14.00,2013-07-03 13:20:00,
2013-07-03 08:22:00,60.7,56.8,29.97,NE,51,0.0,1.0,87,0.00,,---,0.00,VWS V14.00,2013-07-03 13:22:00,
2013-07-03 08:25:00,60.9,56.7,29.97,NE,51,0.0,0.0,86,0.00,,---,0.00,VWS V14.00,2013-07-03 13:25:00,
2013-07-03 08:30:00,61.2,57.0,29.97,NE,50,2.0,2.0,86,0.00,,---,0.00,VWS V14.00,2013-07-03 13:30:00,
2013-07-03 08:35:00,61.5,56.3,29.97,NE,50,0.0,0.0,83,0.00,,---,0.00,VWS V14.00,2013-07-03 13:35:00,
2013-07-03 08:37:00,61.6,56.4,29.97,ENE,69,0.0,3.0,83,0.00,,---,0.00,VWS V14.00,2013-07-03 13:37:00,
2013-07-03 08:40:00,61.6,56.1,29.98,South,190,0.0,3.0,82,0.00,,---,0.00,VWS V14.00,2013-07-03 13:40:00,
2013-07-03 08:42:00,61.7,56.2,29.98,South,190,0.0,0.0,82,0.00,,---,0.00,VWS V14.00,2013-07-03 13:42:00,
2013-07-03 08:45:00,61.8,56.2,29.97,ESE,121,0.0,1.0,82,0.00,,---,0.00,VWS V14.00,2013-07-03 13:45:00,
2013-07-03 08:47:00,61.9,55.7,29.97,ENE,76,0.0,2.0,80,0.00,,---,0.00,VWS V14.00,2013-07-03 13:47:00,
2013-07-03 08:50:00,61.9,55.3,29.97,ENE,76,0.0,2.0,79,0.00,,---,0.00,VWS V14.00,2013-07-03 13:50:00,
2013-07-03 08:52:00,62.0,55.8,29.97,ENE,76,0.0,1.0,80,0.00,,---,0.00,VWS V14.00,2013-07-03 13:52:00,
2013-07-03 08:55:00,62.0,55.8,29.97,WNW,296,1.0,2.0,80,0.00,,---,0.00,VWS V14.00,2013-07-03 13:55:00,
2013-07-03 08:57:00,62.2,56.0,29.97,WNW,296,0.0,1.0,80,0.00,,---,0.00,VWS V14.00,2013-07-03 13:57:00,
2013-07-03 09:00:00,62.2,56.0,29.97,WNW,296,0.0,1.0,80,0.00,,---,0.00,VWS V14.00,2013-07-03 14:00:00,
2013-07-03 09:02:00,62.4,56.2,29.97,WNW,296,0.0,0.0,80,0.00,,---,0.00,VWS V14.00,2013-07-03 14:02:00,
2013-07-03 09:05:00,62.5,55.9,29.97,WNW,295,0.0,0.0,79,0.00,,---,0.00,VWS V14.00,2013-07-03 14:05:00,
2013-07-03 09:06:00,62.6,55.7,29.97,WNW,295,0.0,1.0,78,0.00,,---,0.00,VWS V14.00,2013-07-03 14:06:00,
2013-07-03 09:09:00,62.8,56.2,29.97,WNW,298,0.0,1.0,79,0.00,,---,0.00,VWS V14.00,2013-07-03 14:09:00,
2013-07-03 09:10:00,62.8,55.8,29.97,WNW,298,0.0,1.0,78,0.00,,---,0.00,VWS V14.00,2013-07-03 14:10:00,
2013-07-03 09:14:00,63.1,56.5,29.97,WNW,298,0.0,1.0,79,0.00,,---,0.00,VWS V14.00,2013-07-03 14:14:00,
2013-07-03 09:15:00,63.1,56.5,29.97,WNW,298,0.0,1.0,79,0.00,,---,0.00,VWS V14.00,2013-07-03 14:15:00,
2013-07-03 09:18:00,63.2,56.2,29.97,WNW,298,0.0,0.0,78,0.00,,---,0.00,VWS V14.00,2013-07-03 14:18:00,
2013-07-03 09:20:00,63.2,56.2,29.97,WNW,298,0.0,0.0,78,0.00,,---,0.00,VWS V14.00,2013-07-03 14:20:00,
2013-07-03 09:23:00,63.4,56.8,29.97,NW,311,0.0,1.0,79,0.00,,---,0.00,VWS V14.00,2013-07-03 14:23:00,
2013-07-03 09:25:00,63.5,56.9,29.97,NW,311,0.0,1.0,79,0.00,,---,0.00,VWS V14.00,2013-07-03 14:25:00,
2013-07-03 09:28:00,63.5,56.9,29.97,WSW,241,0.0,1.0,79,0.00,,---,0.00,VWS V14.00,2013-07-03 14:28:00,
2013-07-03 09:30:00,63.6,57.3,29.97,NNE,22,3.0,3.0,80,0.00,,---,0.00,VWS V14.00,2013-07-03 14:30:00,
2013-07-03 09:35:00,63.5,57.2,29.97,NNE,22,0.0,3.0,80,0.00,,---,0.00,VWS V14.00,2013-07-03 14:35:00,
2013-07-03 09:36:00,63.6,57.3,29.97,NNE,22,0.0,0.0,80,0.00,,---,0.00,VWS V14.00,2013-07-03 14:36:00,
2013-07-03 09:38:00,63.7,57.4,29.97,NNE,22,0.0,1.0,80,0.00,,---,0.00,VWS V14.00,2013-07-03 14:38:00,
2013-07-03 09:40:00,63.8,57.5,29.97,NNE,21,0.0,1.0,80,0.00,,---,0.00,VWS V14.00,2013-07-03 14:40:00,
2013-07-03 09:41:00,63.9,58.0,29.97,NNE,22,0.0,0.0,81,0.00,,---,0.00,VWS V14.00,2013-07-03 14:41:00,
2013-07-03 09:45:00,64.1,57.8,29.97,NNE,21,0.0,1.0,80,0.00,,---,0.00,VWS V14.00,2013-07-03 14:45:00,
2013-07-03 09:46:00,64.2,57.9,29.97,NNE,21,0.0,0.0,80,0.00,,---,0.00,VWS V14.00,2013-07-03 14:46:00,
2013-07-03 09:50:00,64.3,58.0,29.97,NNE,22,0.0,3.0,80,0.00,,---,0.00,VWS V14.00,2013-07-03 14:50:00,
2013-07-03 09:51:00,64.4,58.5,29.97,NNE,22,0.0,1.0,81,0.00,,---,0.00,VWS V14.00,2013-07-03 14:51:00,
2013-07-03 09:55:00,64.6,58.7,29.97,NNE,19,0.0,6.0,81,0.00,,---,0.00,VWS V14.00,2013-07-03 14:55:00,
2013-07-03 09:56:00,64.6,58.0,29.97,NW,323,0.0,3.0,79,0.00,,---,0.00,VWS V14.00,2013-07-03 14:56:00,
2013-07-03 09:58:00,64.6,58.3,29.97,NNW,334,0.0,3.0,80,0.00,,---,0.00,VWS V14.00,2013-07-03 14:58:00,
2013-07-03 10:00:00,64.7,58.4,29.97,NNW,334,0.0,3.0,80,0.00,,---,0.00,VWS V14.00,2013-07-03 15:00:00,
2013-07-03 10:03:00,64.7,58.0,29.97,NNE,20,0.0,3.0,79,0.00,,---,0.00,VWS V14.00,2013-07-03 15:03:00,
2013-07-03 10:05:00,64.6,57.6,29.97,NNE,20,0.0,3.0,78,0.00,,---,0.00,VWS V14.00,2013-07-03 15:05:00,
2013-07-03 10:08:00,64.6,58.0,29.97,NNE,22,0.0,1.0,79,0.00,,---,0.00,VWS V14.00,2013-07-03 15:08:00,
2013-07-03 10:10:00,64.6,58.0,29.97,NE,42,1.0,3.0,79,0.00,,---,0.00,VWS V14.00,2013-07-03 15:10:00,
2013-07-03 10:13:00,64.7,57.7,29.97,NE,42,0.0,3.0,78,0.00,,---,0.00,VWS V14.00,2013-07-03 15:13:00,
2013-07-03 10:15:00,64.7,58.0,29.97,NE,41,0.0,1.0,79,0.00,,---,0.00,VWS V14.00,2013-07-03 15:15:00,
2013-07-03 10:20:00,64.6,58.0,29.97,ENE,72,2.0,2.0,79,0.00,,---,0.00,VWS V14.00,2013-07-03 15:20:00,
2013-07-03 10:25:00,64.9,58.6,29.97,NNW,333,1.0,1.0,80,0.00,,---,0.00,VWS V14.00,2013-07-03 15:25:00,
2013-07-03 10:28:00,65.0,58.3,29.97,NNW,334,0.0,2.0,79,0.00,,---,0.00,VWS V14.00,2013-07-03 15:28:00,
2013-07-03 10:30:00,65.0,58.3,29.97,NNW,343,2.0,2.0,79,0.00,,---,0.00,VWS V14.00,2013-07-03 15:30:00,
2013-07-03 10:33:00,65.2,58.9,29.97,NNE,25,0.0,5.0,80,0.00,,---,0.00,VWS V14.00,2013-07-03 15:33:00,
2013-07-03 10:35:00,65.3,58.6,29.97,NNE,25,0.0,5.0,79,0.00,,---,0.00,VWS V14.00,2013-07-03 15:35:00,
2013-07-03 10:38:00,65.4,58.7,29.97,ENE,57,1.0,1.0,79,0.00,,---,0.00,VWS V14.00,2013-07-03 15:38:00,
2013-07-03 10:40:00,65.4,58.4,29.97,ENE,75,0.0,2.0,78,0.00,,---,0.00,VWS V14.00,2013-07-03 15:40:00,
2013-07-03 10:45:00,65.5,58.5,29.97,NE,46,1.0,2.0,78,0.00,,---,0.00,VWS V14.00,2013-07-03 15:45:00,
2013-07-03 10:50:00,65.6,58.6,29.97,ENE,70,0.0,3.0,78,0.00,,---,0.00,VWS V14.00,2013-07-03 15:50:00,
2013-07-03 10:52:00,65.6,58.2,29.97,ENE,70,0.0,3.0,77,0.00,,---,0.00,VWS V14.00,2013-07-03 15:52:00,
2013-07-03 10:55:00,65.6,58.6,29.97,NE,48,0.0,3.0,78,0.00,,---,0.00,VWS V14.00,2013-07-03 15:55:00,
2013-07-03 10:57:00,65.6,58.6,29.97,North,350,2.0,2.0,78,0.00,,---,0.00,VWS V14.00,2013-07-03 15:57:00,
2013-07-03 11:00:00,65.7,58.7,29.97,North,350,0.0,3.0,78,0.00,,---,0.00,VWS V14.00,2013-07-03 16:00:00,
2013-07-03 11:02:00,65.7,58.7,29.97,North,360,0.0,3.0,78,0.00,,---,0.00,VWS V14.00,2013-07-03 16:02:00,
2013-07-03 11:05:00,65.7,58.3,29.97,North,350,0.0,3.0,77,0.00,,---,0.00,VWS V14.00,2013-07-03 16:05:00,
2013-07-03 11:07:00,65.7,58.7,29.97,North,5,0.0,1.0,78,0.00,,---,0.00,VWS V14.00,2013-07-03 16:07:00,
2013-07-03 11:10:00,65.8,58.8,29.97,NNW,348,1.0,1.0,78,0.00,,---,0.00,VWS V14.00,2013-07-03 16:10:00,
2013-07-03 11:12:00,65.8,58.8,29.97,East,86,2.0,2.0,78,0.00,,---,0.00,VWS V14.00,2013-07-03 16:12:00,
2013-07-03 11:15:00,65.9,58.5,29.97,East,86,0.0,3.0,77,0.00,,---,0.00,VWS V14.00,2013-07-03 16:15:00,
2013-07-03 11:17:00,65.9,58.9,29.97,NNE,19,0.0,5.0,78,0.00,,---,0.00,VWS V14.00,2013-07-03 16:17:00,
2013-07-03 11:20:00,65.9,59.2,29.97,NNE,20,0.0,5.0,79,0.00,,---,0.00,VWS V14.00,2013-07-03 16:20:00,
2013-07-03 11:22:00,66.1,58.7,29.97,NE,46,0.0,1.0,77,0.00,,---,0.00,VWS V14.00,2013-07-03 16:22:00,
2013-07-03 11:25:00,66.1,58.7,29.97,ENE,60,3.0,4.0,77,0.00,,---,0.00,VWS V14.00,2013-07-03 16:25:00,
2013-07-03 11:27:00,66.1,58.7,29.97,ESE,103,0.0,3.0,77,0.00,,---,0.00,VWS V14.00,2013-07-03 16:27:00,
2013-07-03 11:30:00,66.1,58.3,29.97,ENE,78,0.0,3.0,76,0.00,,---,0.00,VWS V14.00,2013-07-03 16:30:00,
2013-07-03 11:33:00,66.3,58.9,29.97,NW,319,3.0,3.0,77,0.00,,---,0.00,VWS V14.00,2013-07-03 16:33:00,
2013-07-03 11:35:00,66.4,59.0,29.97,NNW,333,0.0,4.0,77,0.00,,---,0.00,VWS V14.00,2013-07-03 16:35:00,
2013-07-03 11:38:00,66.7,58.9,29.97,NNW,333,3.0,3.0,76,0.00,,---,0.00,VWS V14.00,2013-07-03 16:38:00,
2013-07-03 11:40:00,66.7,59.3,29.97,NNW,346,0.0,3.0,77,0.00,,---,0.00,VWS V14.00,2013-07-03 16:40:00,
2013-07-03 11:43:00,66.9,59.1,29.97,NNW,346,0.0,4.0,76,0.00,,---,0.00,VWS V14.00,2013-07-03 16:43:00,
2013-07-03 11:45:00,66.8,59.0,29.97,NNW,347,0.0,4.0,76,0.00,,---,0.00,VWS V14.00,2013-07-03 16:45:00,
2013-07-03 11:48:00,66.9,59.1,29.97,NNW,348,0.0,3.0,76,0.00,,---,0.00,VWS V14.00,2013-07-03 16:48:00,
2013-07-03 11:50:00,66.9,59.1,29.97,NNW,348,0.0,3.0,76,0.00,,---,0.00,VWS V14.00,2013-07-03 16:50:00,
2013-07-03 11:53:00,66.8,59.4,29.97,NE,41,0.0,3.0,77,0.00,,---,0.00,VWS V14.00,2013-07-03 16:53:00,
2013-07-03 11:55:00,66.8,59.4,29.97,NE,41,0.0,3.0,77,0.00,,---,0.00,VWS V14.00,2013-07-03 16:55:00,
2013-07-03 11:58:00,67.1,59.7,29.96,ENE,77,0.0,3.0,77,0.00,,---,0.00,VWS V14.00,2013-07-03 16:58:00,
2013-07-03 12:00:00,67.2,59.4,29.97,ENE,68,3.0,3.0,76,0.00,,---,0.00,VWS V14.00,2013-07-03 17:00:00,
2013-07-03 12:03:00,67.3,59.1,29.97,NE,40,0.0,3.0,75,0.00,,---,0.00,VWS V14.00,2013-07-03 17:03:00,
2013-07-03 12:05:00,67.3,59.5,29.97,NE,40,0.0,3.0,76,0.00,,---,0.00,VWS V14.00,2013-07-03 17:05:00,
2013-07-03 12:08:00,67.5,59.7,29.97,North,360,1.0,5.0,76,0.00,,---,0.00,VWS V14.00,2013-07-03 17:08:00,
2013-07-03 12:10:00,67.5,59.3,29.97,West,273,0.0,5.0,75,0.00,,---,0.00,VWS V14.00,2013-07-03 17:10:00,
2013-07-03 12:13:00,67.5,59.7,29.97,NE,48,0.0,1.0,76,0.00,,---,0.00,VWS V14.00,2013-07-03 17:13:00,
2013-07-03 12:15:00,67.5,59.7,29.97,NE,48,0.0,1.0,76,0.00,,---,0.00,VWS V14.00,2013-07-03 17:15:00,
2013-07-03 12:19:00,67.6,59.8,29.97,North,355,0.0,4.0,76,0.00,,---,0.00,VWS V14.00,2013-07-03 17:19:00,
2013-07-03 12:20:00,67.6,60.1,29.97,North,355,0.0,4.0,77,0.00,,---,0.00,VWS V14.00,2013-07-03 17:20:00,
2013-07-03 12:24:00,67.6,59.8,29.97,North,355,0.0,3.0,76,0.00,,---,0.00,VWS V14.00,2013-07-03 17:24:00,
2013-07-03 12:25:00,67.6,59.8,29.97,North,355,0.0,3.0,76,0.00,,---,0.00,VWS V14.00,2013-07-03 17:25:00,
2013-07-03 12:29:00,67.4,59.2,29.97,NE,45,0.0,2.0,75,0.00,,---,0.00,VWS V14.00,2013-07-03 17:29:00,
2013-07-03 12:30:00,67.3,59.1,29.97,NE,45,0.0,2.0,75,0.00,,---,0.00,VWS V14.00,2013-07-03 17:30:00,
2013-07-03 12:34:00,67.3,59.8,29.96,NE,45,0.0,3.0,77,0.00,,---,0.00,VWS V14.00,2013-07-03 17:34:00,
2013-07-03 12:35:00,67.3,59.8,29.96,NE,46,0.0,3.0,77,0.00,,---,0.00,VWS V14.00,2013-07-03 17:35:00,
2013-07-03 12:39:00,67.5,60.0,29.96,NNW,346,0.0,4.0,77,0.00,,---,0.00,VWS V14.00,2013-07-03 17:39:00,
2013-07-03 12:40:00,67.5,60.0,29.96,NNW,346,0.0,4.0,77,0.00,,---,0.00,VWS V14.00,2013-07-03 17:40:00,
2013-07-03 12:44:00,67.8,60.0,29.96,NNE,22,0.0,0.0,76,0.00,,---,0.00,VWS V14.00,2013-07-03 17:44:00,
2013-07-03 12:45:00,67.8,60.0,29.96,NNE,22,0.0,4.0,76,0.00,,---,0.00,VWS V14.00,2013-07-03 17:45:00,
2013-07-03 12:49:00,68.0,60.2,29.96,NNE,23,0.0,4.0,76,0.00,,---,0.00,VWS V14.00,2013-07-03 17:49:00,
2013-07-03 12:50:00,68.0,60.2,29.96,NNE,23,0.0,4.0,76,0.00,,---,0.00,VWS V14.00,2013-07-03 17:50:00,
2013-07-03 12:54:00,67.9,60.4,29.96,NNE,13,0.0,5.0,77,0.00,,---,0.00,VWS V14.00,2013-07-03 17:54:00,
2013-07-03 12:55:00,67.9,60.4,29.96,NNE,13,0.0,5.0,77,0.00,,---,0.00,VWS V14.00,2013-07-03 17:55:00,
2013-07-03 12:59:00,68.1,60.3,29.96,NE,51,0.0,0.0,76,0.00,,---,0.00,VWS V14.00,2013-07-03 17:59:00,
2013-07-03 13:00:00,68.2,60.3,29.96,NE,51,0.0,6.0,76,0.00,,---,0.00,VWS V14.00,2013-07-03 18:00:00,
2013-07-03 13:04:00,68.2,60.0,29.96,NE,41,0.0,0.0,75,0.00,,---,0.00,VWS V14.00,2013-07-03 18:04:00,
2013-07-03 13:05:00,68.2,60.0,29.96,NE,41,0.0,4.0,75,0.00,,---,0.00,VWS V14.00,2013-07-03 18:05:00,
2013-07-03 13:09:00,68.5,60.6,29.95,North,360,0.0,0.0,76,0.00,,---,0.00,VWS V14.00,2013-07-03 18:09:00,
2013-07-03 13:10:00,68.5,60.7,29.96,North,360,0.0,1.0,76,0.00,,---,0.00,VWS V14.00,2013-07-03 18:10:00,
2013-07-03 13:15:00,68.2,60.0,29.96,NE,44,0.0,2.0,75,0.00,,---,0.00,VWS V14.00,2013-07-03 18:15:00,
2013-07-03 13:20:00,68.1,59.9,29.95,NE,34,0.0,1.0,75,0.00,,---,0.00,VWS V14.00,2013-07-03 18:20:00,
2013-07-03 13:25:00,68.0,59.8,29.95,NE,55,2.0,2.0,75,0.00,,---,0.00,VWS V14.00,2013-07-03 18:25:00,
2013-07-03 13:30:00,68.0,60.2,29.95,North,355,0.0,2.0,76,0.00,,---,0.00,VWS V14.00,2013-07-03 18:30:00,
2013-07-03 13:35:00,68.1,60.3,29.95,NE,42,0.0,0.0,76,0.00,,---,0.00,VWS V14.00,2013-07-03 18:35:00,
2013-07-03 13:40:00,68.4,60.5,29.94,NE,44,0.0,0.0,76,0.00,,---,0.00,VWS V14.00,2013-07-03 18:40:00,
2013-07-03 13:45:00,68.6,60.7,29.94,NE,40,0.0,3.0,76,0.00,,---,0.00,VWS V14.00,2013-07-03 18:45:00,
2013-07-03 13:46:00,68.8,60.9,29.94,NE,41,0.0,0.0,76,0.00,,---,0.00,VWS V14.00,2013-07-03 18:46:00,
2013-07-03 13:50:00,69.1,60.5,29.94,NNE,30,0.0,1.0,74,0.00,,---,0.00,VWS V14.00,2013-07-03 18:50:00,
2013-07-03 13:51:00,69.3,61.0,29.94,NNE,30,0.0,0.0,75,0.00,,---,0.00,VWS V14.00,2013-07-03 18:51:00,
2013-07-03 13:55:00,69.3,60.7,29.94,ENE,69,0.0,5.0,74,0.00,,---,0.00,VWS V14.00,2013-07-03 18:55:00,
2013-07-03 13:56:00,69.3,60.3,29.94,ENE,67,0.0,1.0,73,0.00,,---,0.00,VWS V14.00,2013-07-03 18:56:00,
2013-07-03 14:00:00,69.2,60.6,29.94,NNE,24,2.0,4.0,74,0.00,,---,0.00,VWS V14.00,2013-07-03 19:00:00,
2013-07-03 14:01:00,69.2,60.2,29.94,NNE,24,0.0,2.0,73,0.00,,---,0.00,VWS V14.00,2013-07-03 19:01:00,
2013-07-03 14:05:00,69.1,60.5,29.94,NNE,32,3.0,3.0,74,0.00,,---,0.00,VWS V14.00,2013-07-03 19:05:00,
2013-07-03 14:06:00,69.1,60.8,29.94,NNE,32,0.0,3.0,75,0.00,,---,0.00,VWS V14.00,2013-07-03 19:06:00,
2013-07-03 14:10:00,69.0,60.8,29.94,NNE,15,0.0,3.0,75,0.00,,---,0.00,VWS V14.00,2013-07-03 19:10:00,
2013-07-03 14:11:00,69.0,60.4,29.94,East,98,0.0,4.0,74,0.00,,---,0.00,VWS V14.00,2013-07-03 19:11:00,
2013-07-03 14:15:00,69.0,61.1,29.94,East,91,1.0,4.0,76,0.00,,---,0.00,VWS V14.00,2013-07-03 19:15:00,
2013-07-03 14:16:00,69.0,60.8,29.93,East,90,0.0,2.0,75,0.00,,---,0.00,VWS V14.00,2013-07-03 19:16:00,
2013-07-03 14:20:00,69.1,60.8,29.93,ESE,111,2.0,4.0,75,0.00,,---,0.00,VWS V14.00,2013-07-03 19:20:00,
2013-07-03 14:21:00,69.0,60.4,29.93,ESE,111,1.0,3.0,74,0.00,,---,0.00,VWS V14.00,2013-07-03 19:21:00,
2013-07-03 14:25:00,69.0,60.4,29.94,NNE,15,0.0,3.0,74,0.00,,---,0.00,VWS V14.00,2013-07-03 19:25:00,
2013-07-03 14:26:00,69.1,60.8,29.93,NNE,15,0.0,0.0,75,0.00,,---,0.00,VWS V14.00,2013-07-03 19:26:00,
2013-07-03 14:30:00,69.3,61.0,29.93,SE,128,0.0,1.0,75,0.00,,---,0.00,VWS V14.00,2013-07-03 19:30:00,
2013-07-03 14:31:00,69.3,60.3,29.93,SE,128,0.0,0.0,73,0.00,,---,0.00,VWS V14.00,2013-07-03 19:31:00,
2013-07-03 14:35:00,69.6,61.3,29.93,SE,128,0.0,1.0,75,0.00,,---,0.00,VWS V14.00,2013-07-03 19:35:00,
2013-07-03 14:36:00,69.7,61.4,29.94,East,97,0.0,3.0,75,0.00,,---,0.00,VWS V14.00,2013-07-03 19:36:00,
2013-07-03 14:40:00,69.8,61.2,29.94,East,96,0.0,3.0,74,0.00,,---,0.00,VWS V14.00,2013-07-03 19:40:00,
2013-07-03 14:41:00,69.8,61.5,29.94,East,96,1.0,1.0,75,0.00,,---,0.00,VWS V14.00,2013-07-03 19:41:00,
2013-07-03 14:45:00,69.7,61.0,29.94,East,94,0.0,2.0,74,0.00,,---,0.00,VWS V14.00,2013-07-03 19:45:00,
2013-07-03 14:47:00,69.6,61.0,29.94,East,94,0.0,1.0,74,0.00,,---,0.00,VWS V14.00,2013-07-03 19:47:00,
2013-07-03 14:50:00,69.7,61.0,29.93,East,94,0.0,1.0,74,0.00,,---,0.00,VWS V14.00,2013-07-03 19:50:00,
2013-07-03 14:52:00,69.6,61.0,29.93,East,94,0.0,1.0,74,0.00,,---,0.00,VWS V14.00,2013-07-03 19:52:00,
2013-07-03 14:55:00,69.7,61.0,29.94,ENE,65,0.0,1.0,74,0.00,,---,0.00,VWS V14.00,2013-07-03 19:55:00,
2013-07-03 14:57:00,69.7,60.7,29.93,ENE,65,0.0,0.0,73,0.00,,---,0.00,VWS V14.00,2013-07-03 19:57:00,
2013-07-03 15:00:00,69.7,60.3,29.93,ENE,65,0.0,0.0,72,0.00,,---,0.00,VWS V14.00,2013-07-03 20:00:00,
2013-07-03 15:02:00,69.6,60.6,29.93,ENE,65,0.0,1.0,73,0.00,,---,0.00,VWS V14.00,2013-07-03 20:02:00,
2013-07-03 15:05:00,69.5,60.5,29.93,SE,133,0.0,1.0,73,0.00,,---,0.00,VWS V14.00,2013-07-03 20:05:00,
2013-07-03 15:07:00,69.6,61.0,29.93,South,169,1.0,1.0,74,0.00,,---,0.00,VWS V14.00,2013-07-03 20:07:00,
2013-07-03 15:10:00,69.6,61.3,29.93,SSE,161,0.0,1.0,75,0.00,,---,0.00,VWS V14.00,2013-07-03 20:10:00,
2013-07-03 15:12:00,69.5,60.9,29.93,SE,129,0.0,1.0,74,0.00,,---,0.00,VWS V14.00,2013-07-03 20:12:00,
2013-07-03 15:15:00,69.4,61.1,29.93,SE,128,0.0,1.0,75,0.00,,---,0.00,VWS V14.00,2013-07-03 20:15:00,
2013-07-03 15:17:00,69.4,60.8,29.93,SE,128,0.0,1.0,74,0.00,,---,0.00,VWS V14.00,2013-07-03 20:17:00,
2013-07-03 15:20:00,69.4,60.8,29.93,SE,128,0.0,1.0,74,0.00,,---,0.00,VWS V14.00,2013-07-03 20:20:00,
2013-07-03 15:22:00,69.4,61.1,29.93,SE,128,0.0,1.0,75,0.00,,---,0.00,VWS V14.00,2013-07-03 20:22:00,
2013-07-03 15:25:00,69.4,60.8,29.93,SE,128,0.0,1.0,74,0.00,,---,0.00,VWS V14.00,2013-07-03 20:25:00,
2013-07-03 15:27:00,69.4,60.8,29.93,South,190,0.0,0.0,74,0.00,,---,0.00,VWS V14.00,2013-07-03 20:27:00,
2013-07-03 15:30:00,69.4,60.8,29.93,East,90,0.0,0.0,74,0.00,,---,0.00,VWS V14.00,2013-07-03 20:30:00,
2013-07-03 15:32:00,69.4,60.8,29.93,East,86,0.0,2.0,74,0.00,,---,0.00,VWS V14.00,2013-07-03 20:32:00,
2013-07-03 15:35:00,69.4,60.8,29.93,East,86,0.0,2.0,74,0.00,,---,0.00,VWS V14.00,2013-07-03 20:35:00,
2013-07-03 15:37:00,69.4,60.8,29.93,East,86,0.0,0.0,74,0.00,,---,0.00,VWS V14.00,2013-07-03 20:37:00,
2013-07-03 15:40:00,69.5,60.9,29.93,East,86,0.0,0.0,74,0.00,,---,0.00,VWS V14.00,2013-07-03 20:40:00,
2013-07-03 15:42:00,69.5,61.2,29.93,East,86,0.0,0.0,75,0.00,,---,0.00,VWS V14.00,2013-07-03 20:42:00,
2013-07-03 15:45:00,69.5,60.9,29.93,East,86,0.0,1.0,74,0.00,,---,0.00,VWS V14.00,2013-07-03 20:45:00,
2013-07-03 15:47:00,69.6,61.3,29.93,East,86,0.0,0.0,75,0.00,,---,0.00,VWS V14.00,2013-07-03 20:47:00,
2013-07-03 15:50:00,69.6,61.3,29.93,East,86,0.0,0.0,75,0.00,,---,0.00,VWS V14.00,2013-07-03 20:50:00,
2013-07-03 15:52:00,69.7,61.4,29.93,East,86,0.0,0.0,75,0.00,,---,0.00,VWS V14.00,2013-07-03 20:52:00,
2013-07-03 15:55:00,69.8,61.5,29.92,East,84,0.0,1.0,75,0.00,,---,0.00,VWS V14.00,2013-07-03 20:55:00,
2013-07-03 15:57:00,69.9,61.6,29.93,East,83,0.0,1.0,75,0.00,,---,0.00,VWS V14.00,2013-07-03 20:57:00,
2013-07-03 16:00:00,69.9,61.2,29.93,East,84,0.0,1.0,74,0.00,,---,0.00,VWS V14.00,2013-07-03 21:00:00,
2013-07-03 16:02:00,69.8,61.2,29.93,West,261,0.0,0.0,74,0.00,,---,0.00,VWS V14.00,2013-07-03 21:02:00,
2013-07-03 16:05:00,69.8,61.2,29.93,West,260,0.0,1.0,74,0.00,,---,0.00,VWS V14.00,2013-07-03 21:05:00,
2013-07-03 16:07:00,69.8,61.5,29.93,West,260,0.0,1.0,75,0.00,,---,0.00,VWS V14.00,2013-07-03 21:07:00,
2013-07-03 16:10:00,69.8,61.5,29.93,West,260,0.0,1.0,75,0.00,,---,0.00,VWS V14.00,2013-07-03 21:10:00,
2013-07-03 16:12:00,69.9,61.6,29.93,West,260,0.0,1.0,75,0.00,,---,0.00,VWS V14.00,2013-07-03 21:12:00,
2013-07-03 16:15:00,69.9,61.6,29.93,West,260,0.0,1.0,75,0.00,,---,0.00,VWS V14.00,2013-07-03 21:15:00,
2013-07-03 16:18:00,69.7,61.4,29.93,West,260,0.0,1.0,75,0.00,,---,0.00,VWS V14.00,2013-07-03 21:18:00,
2013-07-03 16:20:00,69.7,61.8,29.93,West,260,0.0,1.0,76,0.00,,---,0.00,VWS V14.00,2013-07-03 21:20:00,
2013-07-03 16:23:00,69.7,61.4,29.93,West,260,0.0,0.0,75,0.00,,---,0.00,VWS V14.00,2013-07-03 21:23:00,
2013-07-03 16:25:00,69.6,61.7,29.93,West,260,0.0,1.0,76,0.00,,---,0.00,VWS V14.00,2013-07-03 21:25:00,
2013-07-03 16:28:00,69.6,61.3,29.92,West,261,0.0,1.0,75,0.00,,---,0.00,VWS V14.00,2013-07-03 21:28:00,
2013-07-03 16:30:00,69.6,61.3,29.92,West,260,0.0,1.0,75,0.00,,---,0.00,VWS V14.00,2013-07-03 21:30:00,
2013-07-03 16:33:00,69.6,62.1,29.92,West,260,0.0,0.0,77,0.00,,---,0.00,VWS V14.00,2013-07-03 21:33:00,
2013-07-03 16:35:00,69.6,61.7,29.92,West,261,0.0,0.0,76,0.00,,---,0.00,VWS V14.00,2013-07-03 21:35:00,
2013-07-03 16:38:00,69.6,61.7,29.92,West,268,0.0,1.0,76,0.00,,---,0.00,VWS V14.00,2013-07-03 21:38:00,
2013-07-03 16:40:00,69.6,61.7,29.92,West,268,0.0,1.0,76,0.00,,---,0.00,VWS V14.00,2013-07-03 21:40:00,
2013-07-03 16:43:00,69.7,61.8,29.92,West,268,0.0,0.0,76,0.00,,---,0.00,VWS V14.00,2013-07-03 21:43:00,
2013-07-03 16:45:00,69.7,61.8,29.92,West,268,0.0,0.0,76,0.00,,---,0.00,VWS V14.00,2013-07-03 21:45:00,
2013-07-03 16:48:00,70.0,62.5,29.92,West,268,0.0,1.0,77,0.00,,---,0.00,VWS V14.00,2013-07-03 21:48:00,
2013-07-03 16:50:00,70.0,62.1,29.92,WNW,284,0.0,1.0,76,0.00,,---,0.00,VWS V14.00,2013-07-03 21:50:00,
2013-07-03 16:53:00,70.0,61.3,29.92,North,355,0.0,4.0,74,0.00,,---,0.00,VWS V14.00,2013-07-03 21:53:00,
2013-07-03 16:55:00,70.0,61.7,29.92,SSE,168,0.0,4.0,75,0.00,,---,0.00,VWS V14.00,2013-07-03 21:55:00,
2013-07-03 16:59:00,70.0,61.7,29.91,East,79,0.0,3.0,75,0.00,,---,0.00,VWS V14.00,2013-07-03 21:59:00,
2013-07-03 17:00:00,69.9,61.6,29.91,East,80,0.0,3.0,75,0.00,,---,0.00,VWS V14.00,2013-07-03 22:00:00,
2013-07-03 17:04:00,70.1,62.2,29.91,East,80,0.0,1.0,76,0.00,,---,0.00,VWS V14.00,2013-07-03 22:04:00,
2013-07-03 17:05:00,70.1,62.2,29.91,East,79,0.0,1.0,76,0.00,,---,0.00,VWS V14.00,2013-07-03 22:05:00,
2013-07-03 17:09:00,70.2,62.3,29.91,ENE,78,0.0,1.0,76,0.00,,---,0.00,VWS V14.00,2013-07-03 22:09:00,
2013-07-03 17:10:00,70.2,62.3,29.91,ENE,78,0.0,1.0,76,0.00,,---,0.00,VWS V14.00,2013-07-03 22:10:00,
2013-07-03 17:14:00,70.3,62.0,29.91,ENE,78,0.0,0.0,75,0.00,,---,0.00,VWS V14.00,2013-07-03 22:14:00,
2013-07-03 17:15:00,70.3,62.0,29.91,ENE,78,0.0,0.0,75,0.00,,---,0.00,VWS V14.00,2013-07-03 22:15:00,
2013-07-03 17:19:00,70.3,62.4,29.92,WSW,249,0.0,1.0,76,0.00,,---,0.00,VWS V14.00,2013-07-03 22:19:00,
2013-07-03 17:20:00,70.3,62.4,29.92,WSW,250,0.0,1.0,76,0.00,,---,0.00,VWS V14.00,2013-07-03 22:20:00,
2013-07-03 17:24:00,70.1,62.2,29.91,WSW,253,0.0,1.0,76,0.00,,---,0.00,VWS V14.00,2013-07-03 22:24:00,
2013-07-03 17:25:00,70.1,62.2,29.91,WSW,253,0.0,1.0,76,0.00,,---,0.00,VWS V14.00,2013-07-03 22:25:00,
2013-07-03 17:29:00,70.0,62.1,29.91,WSW,253,0.0,0.0,76,0.00,,---,0.00,VWS V14.00,2013-07-03 22:29:00,
2013-07-03 17:30:00,70.0,62.1,29.91,WSW,253,0.0,0.0,76,0.00,,---,0.00,VWS V14.00,2013-07-03 22:30:00,
2013-07-03 17:34:00,69.8,61.9,29.91,WSW,253,0.0,0.0,76,0.00,,---,0.00,VWS V14.00,2013-07-03 22:34:00,
2013-07-03 17:35:00,69.8,61.9,29.91,WSW,253,0.0,0.0,76,0.00,,---,0.00,VWS V14.00,2013-07-03 22:35:00,
2013-07-03 17:39:00,69.8,62.6,29.91,West,259,0.0,0.0,78,0.00,,---,0.00,VWS V14.00,2013-07-03 22:39:00,
2013-07-03 17:40:00,69.8,62.6,29.91,West,259,0.0,0.0,78,0.00,,---,0.00,VWS V14.00,2013-07-03 22:40:00,
2013-07-03 17:44:00,69.6,62.4,29.91,West,259,0.0,0.0,78,0.00,,---,0.00,VWS V14.00,2013-07-03 22:44:00,
2013-07-03 17:45:00,69.6,62.4,29.91,West,259,0.0,0.0,78,0.00,,---,0.00,VWS V14.00,2013-07-03 22:45:00,
2013-07-03 17:49:00,69.5,63.1,29.91,West,266,0.0,0.0,80,0.00,,---,0.00,VWS V14.00,2013-07-03 22:49:00,
2013-07-03 17:50:00,69.5,63.1,29.91,West,266,0.0,0.0,80,0.00,,---,0.00,VWS V14.00,2013-07-03 22:50:00,
2013-07-03 17:54:00,69.4,63.7,29.91,SSW,198,0.0,0.0,82,0.00,,---,0.00,VWS V14.00,2013-07-03 22:54:00,
2013-07-03 17:55:00,69.4,63.7,29.91,SSW,198,0.0,0.0,82,0.00,,---,0.00,VWS V14.00,2013-07-03 22:55:00,
2013-07-03 17:59:00,69.2,63.5,29.91,NE,52,0.0,0.0,82,0.00,,---,0.00,VWS V14.00,2013-07-03 22:59:00,
2013-07-03 18:00:00,69.2,63.5,29.91,NE,52,0.0,0.0,82,0.00,,---,0.00,VWS V14.00,2013-07-03 23:00:00,
2013-07-03 18:04:00,68.9,63.2,29.91,NE,52,0.0,0.0,82,0.00,,---,0.00,VWS V14.00,2013-07-03 23:04:00,
2013-07-03 18:05:00,68.9,63.2,29.91,NE,52,0.0,0.0,82,0.00,,---,0.00,VWS V14.00,2013-07-03 23:05:00,
2013-07-03 18:09:00,68.7,63.3,29.91,SE,124,0.0,0.0,83,0.00,,---,0.00,VWS V14.00,2013-07-03 23:09:00,
2013-07-03 18:10:00,68.7,63.3,29.91,SE,124,0.0,0.0,83,0.00,,---,0.00,VWS V14.00,2013-07-03 23:10:00,
2013-07-03 18:14:00,68.5,63.1,29.91,ESE,123,0.0,0.0,83,0.00,,---,0.00,VWS V14.00,2013-07-03 23:14:00,
2013-07-03 18:15:00,68.5,63.1,29.91,ESE,123,0.0,0.0,83,0.00,,---,0.00,VWS V14.00,2013-07-03 23:15:00,
2013-07-03 18:19:00,68.2,62.8,29.91,SE,124,0.0,0.0,83,0.00,,---,0.00,VWS V14.00,2013-07-03 23:19:00,
2013-07-03 18:20:00,68.2,62.8,29.91,ESE,123,0.0,0.0,83,0.00,,---,0.00,VWS V14.00,2013-07-03 23:20:00,
2013-07-03 18:24:00,68.2,62.8,29.91,ESE,123,0.0,0.0,83,0.00,,---,0.00,VWS V14.00,2013-07-03 23:24:00,
2013-07-03 18:25:00,68.2,62.8,29.91,SE,124,0.0,1.0,83,0.00,,---,0.00,VWS V14.00,2013-07-03 23:25:00,
2013-07-03 18:29:00,68.2,62.8,29.91,ESE,123,0.0,0.0,83,0.00,,---,0.00,VWS V14.00,2013-07-03 23:29:00,
2013-07-03 18:30:00,68.2,62.8,29.91,SE,124,0.0,0.0,83,0.00,,---,0.00,VWS V14.00,2013-07-03 23:30:00,
2013-07-03 18:35:00,68.2,62.8,29.90,SE,124,0.0,0.0,83,0.00,,---,0.00,VWS V14.00,2013-07-03 23:35:00,
2013-07-03 18:40:00,68.3,63.3,29.90,ESE,123,0.0,0.0,84,0.00,,---,0.00,VWS V14.00,2013-07-03 23:40:00,
2013-07-03 18:45:00,68.3,63.3,29.91,SE,124,0.0,0.0,84,0.00,,---,0.00,VWS V14.00,2013-07-03 23:45:00,
2013-07-03 18:50:00,68.4,63.4,29.90,ESE,123,0.0,0.0,84,0.00,,---,0.00,VWS V14.00,2013-07-03 23:50:00,
2013-07-03 18:55:00,68.4,63.0,29.90,SE,136,0.0,0.0,83,0.00,,---,0.00,VWS V14.00,2013-07-03 23:55:00,
2013-07-03 19:00:00,68.4,63.4,29.90,SE,136,0.0,0.0,84,0.00,,---,0.00,VWS V14.00,2013-07-04 00:00:00,
2013-07-03 19:05:00,68.4,62.7,29.90,SE,136,0.0,0.0,82,0.00,,---,0.00,VWS V14.00,2013-07-04 00:05:00,
2013-07-03 19:10:00,68.4,63.0,29.90,SE,136,0.0,0.0,83,0.00,,---,0.00,VWS V14.00,2013-07-04 00:10:00,
2013-07-03 19:15:00,68.4,63.0,29.90,SE,136,0.0,0.0,83,0.00,,---,0.00,VWS V14.00,2013-07-04 00:15:00,
2013-07-03 19:20:00,68.3,63.3,29.90,SE,136,0.0,0.0,84,0.00,,---,0.00,VWS V14.00,2013-07-04 00:20:00,
2013-07-03 19:25:00,68.1,63.1,29.90,SE,136,0.0,0.0,84,0.00,,---,0.00,VWS V14.00,2013-07-04 00:25:00,
2013-07-03 19:30:00,67.9,62.5,29.90,SE,136,0.0,0.0,83,0.00,,---,0.00,VWS V14.00,2013-07-04 00:30:00,
2013-07-03 19:35:00,67.8,63.1,29.90,SE,136,0.0,0.0,85,0.00,,---,0.00,VWS V14.00,2013-07-04 00:35:00,
2013-07-03 19:40:00,67.7,63.4,29.90,SE,136,0.0,0.0,86,0.00,,---,0.00,VWS V14.00,2013-07-04 00:40:00,
2013-07-03 19:45:00,67.5,63.5,29.90,ESE,121,0.0,0.0,87,0.00,,---,0.00,VWS V14.00,2013-07-04 00:45:00,
2013-07-03 19:46:00,67.5,63.5,29.90,ESE,121,0.0,0.0,87,0.00,,---,0.00,VWS V14.00,2013-07-04 00:46:00,
2013-07-03 19:50:00,67.4,63.4,29.91,ESE,121,0.0,0.0,87,0.00,,---,0.00,VWS V14.00,2013-07-04 00:50:00,
2013-07-03 19:51:00,67.4,63.4,29.91,ESE,121,0.0,1.0,87,0.00,,---,0.00,VWS V14.00,2013-07-04 00:51:00,
2013-07-03 19:55:00,67.2,63.2,29.91,ESE,121,0.0,1.0,87,0.00,,---,0.00,VWS V14.00,2013-07-04 00:55:00,
2013-07-03 19:56:00,67.1,63.1,29.91,ESE,121,0.0,0.0,87,0.00,,---,0.00,VWS V14.00,2013-07-04 00:56:00,
2013-07-03 20:00:00,67.0,63.0,29.91,ESE,121,0.0,0.0,87,0.00,,---,0.00,VWS V14.00,2013-07-04 01:00:00,
2013-07-03 20:01:00,67.0,63.0,29.91,ESE,121,0.0,0.0,87,0.00,,---,0.00,VWS V14.00,2013-07-04 01:01:00,
2013-07-03 20:05:00,66.9,63.2,29.91,East,92,0.0,0.0,88,0.00,,---,0.00,VWS V14.00,2013-07-04 01:05:00,
2013-07-03 20:06:00,66.9,63.2,29.91,East,93,0.0,0.0,88,0.00,,---,0.00,VWS V14.00,2013-07-04 01:06:00,
2013-07-03 20:10:00,66.8,63.1,29.91,East,93,0.0,0.0,88,0.00,,---,0.00,VWS V14.00,2013-07-04 01:10:00,
2013-07-03 20:11:00,66.8,63.1,29.91,East,93,0.0,0.0,88,0.00,,---,0.00,VWS V14.00,2013-07-04 01:11:00,
2013-07-03 20:15:00,66.7,63.0,29.91,East,93,0.0,0.0,88,0.00,,---,0.00,VWS V14.00,2013-07-04 01:15:00,
2013-07-03 20:16:00,66.6,62.9,29.91,East,93,0.0,0.0,88,0.00,,---,0.00,VWS V14.00,2013-07-04 01:16:00,
2013-07-03 20:20:00,66.6,62.9,29.91,SW,236,0.0,0.0,88,0.00,,---,0.00,VWS V14.00,2013-07-04 01:20:00,
2013-07-03 20:21:00,66.5,62.8,29.90,WSW,237,0.0,0.0,88,0.00,,---,0.00,VWS V14.00,2013-07-04 01:21:00,
2013-07-03 20:25:00,66.5,62.8,29.90,SW,236,0.0,0.0,88,0.00,,---,0.00,VWS V14.00,2013-07-04 01:25:00,
2013-07-03 20:26:00,66.5,63.2,29.90,WSW,237,0.0,0.0,89,0.00,,---,0.00,VWS V14.00,2013-07-04 01:26:00,
2013-07-03 20:30:00,66.4,63.1,29.90,SW,236,0.0,0.0,89,0.00,,---,0.00,VWS V14.00,2013-07-04 01:30:00,
2013-07-03 20:32:00,66.4,63.1,29.90,WSW,237,0.0,0.0,89,0.00,,---,0.00,VWS V14.00,2013-07-04 01:32:00,
2013-07-03 20:35:00,66.4,63.1,29.90,WSW,237,0.0,0.0,89,0.00,,---,0.00,VWS V14.00,2013-07-04 01:35:00,
2013-07-03 20:37:00,66.4,63.1,29.90,SW,236,0.0,0.0,89,0.00,,---,0.00,VWS V14.00,2013-07-04 01:37:00,
2013-07-03 20:40:00,66.3,63.0,29.90,WSW,237,0.0,0.0,89,0.00,,---,0.00,VWS V14.00,2013-07-04 01:40:00,
2013-07-03 20:42:00,66.3,63.0,29.90,WSW,237,0.0,0.0,89,0.00,,---,0.00,VWS V14.00,2013-07-04 01:42:00,
2013-07-03 20:45:00,66.2,62.9,29.90,WSW,237,0.0,0.0,89,0.00,,---,0.00,VWS V14.00,2013-07-04 01:45:00,
2013-07-03 20:47:00,66.2,62.9,29.91,WSW,237,0.0,0.0,89,0.00,,---,0.00,VWS V14.00,2013-07-04 01:47:00,
2013-07-03 20:50:00,66.1,62.8,29.90,WSW,237,0.0,0.0,89,0.00,,---,0.00,VWS V14.00,2013-07-04 01:50:00,
2013-07-03 20:52:00,66.1,62.8,29.90,SW,236,0.0,0.0,89,0.00,,---,0.00,VWS V14.00,2013-07-04 01:52:00,
2013-07-03 20:55:00,66.1,63.1,29.90,WSW,237,0.0,0.0,90,0.00,,---,0.00,VWS V14.00,2013-07-04 01:55:00,
2013-07-03 20:57:00,66.1,63.1,29.90,SW,236,0.0,0.0,90,0.00,,---,0.00,VWS V14.00,2013-07-04 01:57:00,
2013-07-03 21:00:00,66.1,63.1,29.91,WSW,237,0.0,0.0,90,0.00,,---,0.00,VWS V14.00,2013-07-04 02:00:00,
2013-07-03 21:02:00,66.0,63.0,29.91,WSW,237,0.0,0.0,90,0.00,,---,0.00,VWS V14.00,2013-07-04 02:02:00,
2013-07-03 21:05:00,66.0,63.0,29.90,WSW,237,0.0,0.0,90,0.00,,---,0.00,VWS V14.00,2013-07-04 02:05:00,
2013-07-03 21:07:00,65.9,62.9,29.91,WSW,237,0.0,0.0,90,0.00,,---,0.00,VWS V14.00,2013-07-04 02:07:00,
2013-07-03 21:10:00,65.9,62.9,29.91,WSW,237,0.0,0.0,90,0.00,,---,0.00,VWS V14.00,2013-07-04 02:10:00,
2013-07-03 21:12:00,65.9,62.9,29.91,WSW,237,0.0,0.0,90,0.00,,---,0.00,VWS V14.00,2013-07-04 02:12:00,
2013-07-03 21:15:00,65.9,62.9,29.91,WSW,237,0.0,0.0,90,0.00,,---,0.00,VWS V14.00,2013-07-04 02:15:00,
2013-07-03 21:17:00,65.8,62.8,29.91,WSW,237,0.0,0.0,90,0.00,,---,0.00,VWS V14.00,2013-07-04 02:17:00,
2013-07-03 21:20:00,65.8,62.8,29.91,SW,236,0.0,0.0,90,0.00,,---,0.00,VWS V14.00,2013-07-04 02:20:00,
2013-07-03 21:22:00,65.8,63.1,29.91,WSW,237,0.0,0.0,91,0.00,,---,0.00,VWS V14.00,2013-07-04 02:22:00,
2013-07-03 21:25:00,65.8,63.1,29.91,WSW,237,0.0,0.0,91,0.00,,---,0.00,VWS V14.00,2013-07-04 02:25:00,
2013-07-03 21:27:00,65.7,63.0,29.91,WSW,237,0.0,0.0,91,0.00,,---,0.00,VWS V14.00,2013-07-04 02:27:00,
2013-07-03 21:30:00,65.7,63.0,29.91,WSW,237,0.0,0.0,91,0.00,,---,0.00,VWS V14.00,2013-07-04 02:30:00,
2013-07-03 21:33:00,65.6,62.9,29.92,WSW,237,0.0,0.0,91,0.00,,---,0.00,VWS V14.00,2013-07-04 02:33:00,
2013-07-03 21:35:00,65.6,62.9,29.91,WSW,237,0.0,0.0,91,0.00,,---,0.00,VWS V14.00,2013-07-04 02:35:00,
2013-07-03 21:38:00,65.5,62.8,29.92,WSW,237,0.0,0.0,91,0.00,,---,0.00,VWS V14.00,2013-07-04 02:38:00,
2013-07-03 21:40:00,65.4,62.7,29.92,WSW,237,0.0,0.0,91,0.00,,---,0.00,VWS V14.00,2013-07-04 02:40:00,
2013-07-03 21:43:00,65.3,62.6,29.91,WSW,237,0.0,0.0,91,0.00,,---,0.00,VWS V14.00,2013-07-04 02:43:00,
2013-07-03 21:45:00,65.2,62.5,29.92,WSW,237,0.0,0.0,91,0.00,,---,0.00,VWS V14.00,2013-07-04 02:45:00,
2013-07-03 21:48:00,65.0,62.3,29.92,WSW,237,0.0,0.0,91,0.00,,---,0.00,VWS V14.00,2013-07-04 02:48:00,
2013-07-03 21:50:00,64.8,62.1,29.92,SW,236,0.0,0.0,91,0.00,,---,0.00,VWS V14.00,2013-07-04 02:50:00,
2013-07-03 21:53:00,64.6,61.9,29.92,WSW,237,0.0,1.0,91,0.00,,---,0.00,VWS V14.00,2013-07-04 02:53:00,
2013-07-03 21:55:00,64.5,61.8,29.92,WSW,237,0.0,1.0,91,0.00,,---,0.00,VWS V14.00,2013-07-04 02:55:00,
2013-07-03 21:58:00,64.1,61.4,29.92,WSW,237,0.0,1.0,91,0.00,,---,0.00,VWS V14.00,2013-07-04 02:58:00,
2013-07-03 22:00:00,64.0,61.3,29.92,WSW,237,0.0,1.0,91,0.00,,---,0.00,VWS V14.00,2013-07-04 03:00:00,
2013-07-03 22:03:00,63.7,61.0,29.92,WSW,237,0.0,0.0,91,0.00,,---,0.00,VWS V14.00,2013-07-04 03:03:00,
2013-07-03 22:05:00,63.6,60.9,29.92,WSW,237,0.0,0.0,91,0.00,,---,0.00,VWS V14.00,2013-07-04 03:05:00,
2013-07-03 22:08:00,63.4,60.7,29.92,WSW,237,0.0,0.0,91,0.00,,---,0.00,VWS V14.00,2013-07-04 03:08:00,
2013-07-03 22:10:00,63.4,60.7,29.92,WSW,237,0.0,0.0,91,0.00,,---,0.00,VWS V14.00,2013-07-04 03:10:00,
2013-07-03 22:13:00,63.2,60.8,29.92,WSW,237,0.0,0.0,92,0.00,,---,0.00,VWS V14.00,2013-07-04 03:13:00,
2013-07-03 22:15:00,63.1,60.7,29.92,WSW,237,0.0,0.0,92,0.00,,---,0.00,VWS V14.00,2013-07-04 03:15:00,
2013-07-03 22:18:00,62.9,60.5,29.92,WSW,237,0.0,0.0,92,0.00,,---,0.00,VWS V14.00,2013-07-04 03:18:00,
2013-07-03 22:20:00,62.9,60.5,29.92,WSW,237,0.0,0.0,92,0.00,,---,0.00,VWS V14.00,2013-07-04 03:20:00,
2013-07-03 22:23:00,62.7,60.3,29.92,WSW,237,0.0,0.0,92,0.00,,---,0.00,VWS V14.00,2013-07-04 03:23:00,
2013-07-03 22:25:00,62.7,60.3,29.92,WSW,237,0.0,0.0,92,0.00,,---,0.00,VWS V14.00,2013-07-04 03:25:00,
2013-07-03 22:29:00,62.5,60.2,29.92,WSW,237,0.0,1.0,92,0.00,,---,0.00,VWS V14.00,2013-07-04 03:29:00,
2013-07-03 22:30:00,62.5,60.5,29.92,WSW,237,0.0,1.0,93,0.00,,---,0.00,VWS V14.00,2013-07-04 03:30:00,
2013-07-03 22:34:00,62.4,60.3,29.92,WSW,237,0.0,0.0,93,0.00,,---,0.00,VWS V14.00,2013-07-04 03:34:00,
2013-07-03 22:35:00,62.4,60.3,29.92,WSW,237,0.0,0.0,93,0.00,,---,0.00,VWS V14.00,2013-07-04 03:35:00,
2013-07-03 22:39:00,62.2,60.2,29.92,WSW,237,0.0,0.0,93,0.00,,---,0.00,VWS V14.00,2013-07-04 03:39:00,
2013-07-03 22:40:00,62.2,60.2,29.92,WSW,237,0.0,0.0,93,0.00,,---,0.00,VWS V14.00,2013-07-04 03:40:00,
2013-07-03 22:44:00,62.0,60.0,29.92,WSW,237,0.0,0.0,93,0.00,,---,0.00,VWS V14.00,2013-07-04 03:44:00,
2013-07-03 22:45:00,62.0,60.0,29.92,WSW,237,0.0,0.0,93,0.00,,---,0.00,VWS V14.00,2013-07-04 03:45:00,
2013-07-03 22:49:00,61.8,59.8,29.92,WSW,237,0.0,0.0,93,0.00,,---,0.00,VWS V14.00,2013-07-04 03:49:00,
2013-07-03 22:50:00,61.8,59.8,29.92,WSW,237,0.0,0.0,93,0.00,,---,0.00,VWS V14.00,2013-07-04 03:50:00,
2013-07-03 22:54:00,61.7,59.7,29.92,WSW,237,0.0,0.0,93,0.00,,---,0.00,VWS V14.00,2013-07-04 03:54:00,
2013-07-03 22:55:00,61.7,59.7,29.92,WSW,237,0.0,0.0,93,0.00,,---,0.00,VWS V14.00,2013-07-04 03:55:00,
2013-07-03 22:59:00,61.6,59.9,29.93,WSW,237,0.0,0.0,94,0.00,,---,0.00,VWS V14.00,2013-07-04 03:59:00,
2013-07-03 23:00:00,61.6,59.9,29.92,WSW,237,0.0,0.0,94,0.00,,---,0.00,VWS V14.00,2013-07-04 04:00:00,
2013-07-03 23:01:00,61.5,59.8,29.93,WSW,237,0.0,0.0,94,0.00,,---,0.00,VWS V14.00,2013-07-04 04:01:00,
2013-07-03 23:02:00,61.5,59.8,29.92,WSW,237,0.0,0.0,94,0.00,,---,0.00,VWS V14.00,2013-07-04 04:02:00,
2013-07-03 23:05:00,61.4,59.7,29.92,WSW,237,0.0,0.0,94,0.00,,---,0.00,VWS V14.00,2013-07-04 04:05:00,
2013-07-03 23:07:00,61.4,59.7,29.92,WSW,237,0.0,0.0,94,0.00,,---,0.00,VWS V14.00,2013-07-04 04:07:00,
2013-07-03 23:10:00,61.3,59.6,29.92,WSW,237,0.0,0.0,94,0.00,,---,0.00,VWS V14.00,2013-07-04 04:10:00,
2013-07-03 23:12:00,61.2,59.5,29.92,WSW,237,0.0,0.0,94,0.00,,---,0.00,VWS V14.00,2013-07-04 04:12:00,
2013-07-03 23:15:00,61.1,59.4,29.92,WSW,237,0.0,0.0,94,0.00,,---,0.00,VWS V14.00,2013-07-04 04:15:00,
2013-07-03 23:17:00,61.0,59.3,29.92,WSW,237,0.0,0.0,94,0.00,,---,0.00,VWS V14.00,2013-07-04 04:17:00,
2013-07-03 23:20:00,61.0,59.3,29.92,WSW,237,0.0,0.0,94,0.00,,---,0.00,VWS V14.00,2013-07-04 04:20:00,
2013-07-03 23:22:00,60.9,59.2,29.92,WSW,237,0.0,0.0,94,0.00,,---,0.00,VWS V14.00,2013-07-04 04:22:00,
2013-07-03 23:25:00,60.9,59.2,29.92,WSW,237,0.0,0.0,94,0.00,,---,0.00,VWS V14.00,2013-07-04 04:25:00,
2013-07-03 23:27:00,60.8,59.1,29.92,WSW,237,0.0,0.0,94,0.00,,---,0.00,VWS V14.00,2013-07-04 04:27:00,
2013-07-03 23:30:00,60.8,59.1,29.92,WSW,237,0.0,0.0,94,0.00,,---,0.00,VWS V14.00,2013-07-04 04:30:00,
2013-07-03 23:32:00,60.6,58.9,29.92,WSW,237,0.0,0.0,94,0.00,,---,0.00,VWS V14.00,2013-07-04 04:32:00,
2013-07-03 23:35:00,60.4,58.7,29.92,WSW,237,0.0,0.0,94,0.00,,---,0.00,VWS V14.00,2013-07-04 04:35:00,
2013-07-03 23:37:00,60.2,58.5,29.93,WSW,237,0.0,0.0,94,0.00,,---,0.00,VWS V14.00,2013-07-04 04:37:00,
2013-07-03 23:40:00,60.1,58.4,29.93,WSW,237,0.0,0.0,94,0.00,,---,0.00,VWS V14.00,2013-07-04 04:40:00,
2013-07-03 23:42:00,60.0,58.3,29.93,WSW,237,0.0,0.0,94,0.00,,---,0.00,VWS V14.00,2013-07-04 04:42:00,
2013-07-03 23:45:00,59.9,58.2,29.93,WSW,237,0.0,0.0,94,0.00,,---,0.00,VWS V14.00,2013-07-04 04:45:00,
2013-07-03 23:47:00,59.9,58.2,29.93,WSW,237,0.0,0.0,94,0.00,,---,0.00,VWS V14.00,2013-07-04 04:47:00,
2013-07-03 23:50:00,59.9,58.2,29.93,WSW,237,0.0,0.0,94,0.00,,---,0.00,VWS V14.00,2013-07-04 04:50:00,
2013-07-03 23:52:00,59.7,58.0,29.93,WSW,237,0.0,0.0,94,0.00,,---,0.00,VWS V14.00,2013-07-04 04:52:00,
2013-07-03 23:55:00,59.5,57.8,29.93,WSW,237,0.0,0.0,94,0.00,,---,0.00,VWS V14.00,2013-07-04 04:55:00,
2013-07-03 23:57:00,59.3,57.6,29.93,WSW,237,0.0,0.0,94,0.00,,---,0.00,VWS V14.00,2013-07-04 04:57:00,